createdAt,value
2019-03-10T00:00:17.994Z,99.99
2019-03-10T00:01:17.731Z,99.99
2019-03-10T00:02:17.961Z,99.99
2019-03-10T00:03:17.952Z,99.99
2019-03-10T00:04:17.932Z,99.99
2019-03-10T00:05:17.916Z,98.82
2019-03-10T00:06:17.895Z,99.29
2019-03-10T00:07:17.880Z,98.82
2019-03-10T00:08:17.862Z,97.97
2019-03-10T00:09:17.846Z,97.68
2019-03-10T00:10:17.845Z,97.21
2019-03-10T00:11:17.817Z,96.45
2019-03-10T00:12:17.809Z,96.55
2019-03-10T00:13:17.791Z,97.21
2019-03-10T00:14:17.768Z,96.64
2019-03-10T00:15:17.753Z,96.07
2019-03-10T00:16:17.736Z,95.79
2019-03-10T00:17:17.719Z,95.6
2019-03-10T00:18:17.725Z,96.36
2019-03-10T00:19:17.686Z,96.83
2019-03-10T00:20:17.668Z,97.49
2019-03-10T00:21:17.654Z,99.01
2019-03-10T00:22:17.640Z,99.99
2019-03-10T00:23:17.678Z,99.99
2019-03-10T00:24:17.615Z,99.99
2019-03-10T00:25:17.607Z,99.99
2019-03-10T00:26:17.589Z,99.99
2019-03-10T00:27:17.555Z,99.99
2019-03-10T00:28:17.541Z,99.99
2019-03-10T00:29:17.521Z,99.99
2019-03-10T00:30:17.508Z,99.99
2019-03-10T00:31:17.493Z,99.99
2019-03-10T00:32:17.478Z,99.99
2019-03-10T00:33:17.460Z,99.99
2019-03-10T00:34:19.219Z,99.99
2019-03-10T00:35:17.436Z,99.99
2019-03-10T00:36:17.417Z,99.99
2019-03-10T00:37:17.397Z,99.99
2019-03-10T00:38:17.377Z,99.99
2019-03-10T00:39:17.363Z,99.99
2019-03-10T00:40:17.344Z,99.99
2019-03-10T00:41:17.081Z,99.99
2019-03-10T00:42:17.318Z,99.99
2019-03-10T00:43:17.296Z,99.99
2019-03-10T00:44:17.288Z,99.99
2019-03-10T00:45:17.264Z,99.99
2019-03-10T00:46:17.006Z,99.99
2019-03-10T00:47:17.231Z,99.99
2019-03-10T00:48:17.220Z,99.99
2019-03-10T00:49:17.197Z,99.99
2019-03-10T00:50:17.185Z,99.99
2019-03-10T00:51:17.173Z,99.99
2019-03-10T00:52:17.156Z,99.99
2019-03-10T00:53:17.134Z,99.99
2019-03-10T00:54:17.118Z,99.99
2019-03-10T00:55:17.109Z,99.99
2019-03-10T00:56:17.092Z,99.99
2019-03-10T00:57:16.826Z,99.99
2019-03-10T00:58:17.055Z,99.99
2019-03-10T00:59:17.036Z,99.99
2019-03-10T01:00:17.022Z,99.99
2019-03-10T01:01:17.003Z,99.99
2019-03-10T01:02:16.987Z,99.99
2019-03-10T01:03:16.977Z,99.99
2019-03-10T01:04:16.971Z,99.99
2019-03-10T01:05:16.944Z,99.99
2019-03-10T01:06:16.933Z,99.99
2019-03-10T01:07:16.911Z,99.99
2019-03-10T01:08:16.896Z,99.99
2019-03-10T01:09:16.880Z,99.99
2019-03-10T01:10:16.860Z,99.99
2019-03-10T01:11:16.602Z,99.99
2019-03-10T01:12:16.830Z,99.99
2019-03-10T01:13:16.816Z,99.99
2019-03-10T01:14:17.083Z,99.99
2019-03-10T01:15:16.779Z,99.99
2019-03-10T01:16:16.762Z,99.99
2019-03-10T01:17:16.757Z,99.99
2019-03-10T01:18:16.730Z,99.99
2019-03-10T01:19:16.716Z,99.99
2019-03-10T01:20:16.704Z,99.99
2019-03-10T01:21:16.681Z,99.99
2019-03-10T01:22:16.670Z,99.99
2019-03-10T01:23:16.653Z,99.96
2019-03-10T01:24:16.635Z,98.72
2019-03-10T01:25:16.618Z,98.91
2019-03-10T01:26:16.609Z,99.2
2019-03-10T01:27:16.340Z,99.01
2019-03-10T01:28:16.574Z,99.2
2019-03-10T01:29:16.555Z,99.48
2019-03-10T01:30:16.334Z,99.99
2019-03-10T01:31:16.530Z,99.99
2019-03-10T01:32:16.524Z,99.99
2019-03-10T01:33:16.546Z,99.99
2019-03-10T01:34:16.478Z,99.99
2019-03-10T01:35:16.461Z,99.99
2019-03-10T01:36:16.443Z,99.99
2019-03-10T01:37:16.427Z,99.99
2019-03-10T01:38:16.413Z,99.99
2019-03-10T01:39:16.150Z,99.99
2019-03-10T01:40:16.378Z,99.99
2019-03-10T01:41:16.366Z,99.99
2019-03-10T01:42:16.353Z,99.99
2019-03-10T01:43:16.345Z,99.99
2019-03-10T01:44:16.314Z,99.99
2019-03-10T01:45:16.309Z,99.99
2019-03-10T01:46:16.289Z,99.99
2019-03-10T01:47:16.269Z,99.99
2019-03-10T01:48:16.265Z,99.99
2019-03-10T01:49:16.236Z,99.99
2019-03-10T01:50:16.241Z,99.99
2019-03-10T01:51:16.208Z,99.99
2019-03-10T01:52:16.194Z,99.99
2019-03-10T01:53:25.161Z,99.99
2019-03-10T01:54:16.344Z,99.99
2019-03-10T01:55:16.146Z,99.99
2019-03-10T01:56:15.881Z,99.99
2019-03-10T01:57:16.110Z,99.99
2019-03-10T01:58:16.118Z,99.99
2019-03-10T01:59:16.079Z,99.99
2019-03-10T02:00:16.081Z,99.99
2019-03-10T02:01:16.147Z,99.99
2019-03-10T02:02:24.774Z,99.99
2019-03-10T02:03:16.021Z,99.99
2019-03-10T02:04:16.003Z,99.99
2019-03-10T02:05:15.984Z,99.99
2019-03-10T02:06:15.970Z,99.99
2019-03-10T02:07:15.953Z,99.99
2019-03-10T02:08:15.941Z,99.99
2019-03-10T02:09:15.919Z,99.99
2019-03-10T02:10:15.906Z,99.99
2019-03-10T02:11:15.893Z,99.99
2019-03-10T02:12:15.875Z,99.99
2019-03-10T02:13:15.857Z,99.99
2019-03-10T02:14:15.843Z,99.99
2019-03-10T02:15:15.825Z,99.99
2019-03-10T02:16:15.815Z,99.99
2019-03-10T02:17:15.798Z,99.99
2019-03-10T02:18:15.780Z,99.99
2019-03-10T02:19:15.761Z,99.99
2019-03-10T02:20:15.748Z,99.99
2019-03-10T02:21:15.732Z,99.99
2019-03-10T02:22:15.737Z,99.99
2019-03-10T02:23:15.717Z,99.99
2019-03-10T02:24:25.712Z,99.99
2019-03-10T02:25:15.668Z,99.99
2019-03-10T02:26:15.653Z,99.99
2019-03-10T02:27:15.637Z,99.99
2019-03-10T02:28:15.640Z,99.99
2019-03-10T02:29:15.604Z,99.99
2019-03-10T02:30:15.593Z,99.99
2019-03-10T02:31:15.591Z,99.99
2019-03-10T02:32:15.559Z,99.99
2019-03-10T02:33:15.544Z,99.99
2019-03-10T02:34:15.529Z,99.99
2019-03-10T02:35:15.263Z,99.99
2019-03-10T02:36:15.499Z,99.99
2019-03-10T02:37:15.493Z,99.99
2019-03-10T02:38:15.462Z,99.99
2019-03-10T02:39:15.450Z,99.99
2019-03-10T02:40:15.450Z,99.99
2019-03-10T02:41:15.417Z,99.99
2019-03-10T02:42:15.402Z,99.99
2019-03-10T02:43:15.397Z,99.99
2019-03-10T02:44:15.374Z,99.99
2019-03-10T02:45:15.112Z,99.99
2019-03-10T02:46:15.341Z,99.99
2019-03-10T02:47:15.320Z,99.99
2019-03-10T02:48:15.318Z,99.99
2019-03-10T02:49:15.296Z,99.99
2019-03-10T02:50:15.275Z,99.99
2019-03-10T02:51:15.264Z,99.99
2019-03-10T02:52:15.243Z,99.99
2019-03-10T02:53:15.227Z,99.99
2019-03-10T02:54:15.222Z,99.99
2019-03-10T02:55:15.218Z,99.99
2019-03-10T02:56:15.178Z,99.99
2019-03-10T02:57:15.166Z,99.99
2019-03-10T02:58:15.163Z,99.99
2019-03-10T02:59:15.253Z,99.99
2019-03-10T03:00:15.127Z,99.99
2019-03-10T03:01:15.104Z,99.99
2019-03-10T03:02:15.092Z,99.99
2019-03-10T03:03:15.073Z,99.99
2019-03-10T03:04:15.063Z,99.99
2019-03-10T03:05:15.041Z,99.99
2019-03-10T03:06:15.032Z,99.99
2019-03-10T03:07:15.006Z,99.99
2019-03-10T03:08:16.793Z,99.99
2019-03-10T03:09:14.981Z,99.99
2019-03-10T03:10:14.745Z,99.99
2019-03-10T03:11:14.699Z,99.99
2019-03-10T03:12:14.928Z,99.99
2019-03-10T03:13:14.912Z,99.99
2019-03-10T03:14:14.904Z,99.99
2019-03-10T03:15:14.889Z,99.99
2019-03-10T03:16:14.864Z,99.99
2019-03-10T03:17:14.857Z,99.99
2019-03-10T03:18:14.938Z,99.99
2019-03-10T03:19:14.819Z,99.99
2019-03-10T03:20:14.807Z,99.99
2019-03-10T03:21:14.791Z,99.99
2019-03-10T03:22:14.782Z,99.99
2019-03-10T03:23:14.756Z,99.99
2019-03-10T03:24:14.747Z,99.99
2019-03-10T03:25:14.822Z,99.99
2019-03-10T03:26:14.714Z,99.99
2019-03-10T03:27:14.698Z,99.99
2019-03-10T03:28:14.694Z,99.99
2019-03-10T03:29:14.664Z,99.99
2019-03-10T03:30:14.697Z,99.99
2019-03-10T03:31:14.640Z,99.99
2019-03-10T03:32:14.390Z,99.99
2019-03-10T03:33:14.660Z,99.99
2019-03-10T03:34:14.348Z,99.99
2019-03-10T03:35:14.587Z,99.99
2019-03-10T03:36:14.553Z,99.99
2019-03-10T03:37:14.540Z,99.99
2019-03-10T03:38:14.527Z,99.99
2019-03-10T03:39:14.513Z,99.99
2019-03-10T03:40:14.486Z,99.99
2019-03-10T03:41:14.482Z,99.99
2019-03-10T03:42:14.458Z,99.99
2019-03-10T03:43:14.201Z,99.99
2019-03-10T03:44:14.430Z,99.99
2019-03-10T03:45:14.440Z,99.99
2019-03-10T03:46:14.414Z,99.99
2019-03-10T03:47:14.378Z,99.99
2019-03-10T03:48:14.370Z,99.99
2019-03-10T03:49:14.353Z,99.99
2019-03-10T03:50:14.331Z,99.99
2019-03-10T03:51:14.334Z,99.99
2019-03-10T03:52:14.304Z,99.99
2019-03-10T03:53:14.309Z,99.99
2019-03-10T03:54:14.286Z,99.99
2019-03-10T03:55:14.260Z,99.99
2019-03-10T03:56:14.256Z,99.99
2019-03-10T03:57:14.234Z,99.99
2019-03-10T03:58:14.213Z,99.99
2019-03-10T03:59:13.948Z,99.99
2019-03-10T04:00:14.204Z,99.99
2019-03-10T04:01:14.165Z,99.96
2019-03-10T04:02:14.143Z,99.77
2019-03-10T04:03:14.129Z,98.91
2019-03-10T04:04:14.117Z,98.44
2019-03-10T04:05:14.103Z,98.35
2019-03-10T04:06:13.837Z,97.87
2019-03-10T04:07:14.083Z,98.44
2019-03-10T04:08:14.053Z,98.72
2019-03-10T04:09:14.040Z,97.97
2019-03-10T04:10:14.021Z,98.54
2019-03-10T04:11:14.005Z,98.72
2019-03-10T04:12:13.989Z,97.97
2019-03-10T04:13:13.974Z,97.78
2019-03-10T04:14:13.957Z,97.3
2019-03-10T04:15:13.699Z,97.21
2019-03-10T04:16:13.933Z,96.64
2019-03-10T04:17:13.922Z,96.45
2019-03-10T04:18:13.897Z,96.73
2019-03-10T04:19:13.892Z,96.83
2019-03-10T04:20:13.875Z,97.02
2019-03-10T04:21:13.845Z,96.92
2019-03-10T04:22:13.837Z,97.11
2019-03-10T04:23:13.826Z,96.17
2019-03-10T04:24:13.902Z,96.73
2019-03-10T04:25:13.782Z,97.3
2019-03-10T04:26:13.765Z,97.11
2019-03-10T04:27:13.748Z,97.11
2019-03-10T04:28:13.731Z,97.68
2019-03-10T04:29:13.470Z,97.49
2019-03-10T04:30:13.457Z,97.3
2019-03-10T04:31:13.704Z,99.96
2019-03-10T04:32:13.667Z,99.99
2019-03-10T04:33:13.409Z,99.99
2019-03-10T04:34:13.639Z,99.99
2019-03-10T04:35:13.618Z,99.99
2019-03-10T04:36:13.360Z,99.99
2019-03-10T04:37:13.595Z,99.99
2019-03-10T04:38:13.574Z,99.67
2019-03-10T04:39:13.555Z,99.06
2019-03-10T04:40:13.543Z,98.68
2019-03-10T04:41:13.522Z,98.21
2019-03-10T04:42:13.510Z,97.73
2019-03-10T04:43:13.494Z,96.97
2019-03-10T04:44:13.476Z,97.11
2019-03-10T04:45:13.471Z,97.11
2019-03-10T04:46:13.446Z,97.11
2019-03-10T04:47:13.435Z,97.07
2019-03-10T04:48:13.416Z,96.45
2019-03-10T04:49:13.399Z,97.83
2019-03-10T04:50:13.381Z,97.78
2019-03-10T04:51:13.368Z,97.59
2019-03-10T04:52:13.349Z,97.64
2019-03-10T04:53:13.342Z,97.49
2019-03-10T04:54:13.322Z,97.21
2019-03-10T04:55:13.302Z,96.73
2019-03-10T04:56:13.285Z,97.35
2019-03-10T04:57:13.273Z,96.45
2019-03-10T04:58:13.257Z,95.84
2019-03-10T04:59:13.243Z,95.12
2019-03-10T05:00:13.229Z,94.65
2019-03-10T05:01:12.962Z,95.12
2019-03-10T05:02:13.195Z,95.17
2019-03-10T05:03:12.932Z,95.36
2019-03-10T05:04:13.163Z,95.07
2019-03-10T05:05:13.147Z,95.36
2019-03-10T05:06:13.134Z,94.6
2019-03-10T05:07:13.119Z,94.98
2019-03-10T05:08:13.100Z,95.07
2019-03-10T05:09:13.154Z,94.84
2019-03-10T05:10:13.064Z,94.23
2019-03-10T05:11:13.063Z,94.23
2019-03-10T05:12:13.035Z,94.04
2019-03-10T05:13:13.016Z,94.6
2019-03-10T05:14:13.007Z,94.27
2019-03-10T05:15:12.740Z,94.7
2019-03-10T05:16:12.974Z,94.89
2019-03-10T05:17:12.956Z,95.26
2019-03-10T05:18:12.939Z,95.07
2019-03-10T05:19:12.923Z,95.26
2019-03-10T05:20:12.663Z,96.5
2019-03-10T05:21:12.895Z,97.54
2019-03-10T05:22:12.876Z,98.3
2019-03-10T05:23:12.863Z,98.49
2019-03-10T05:24:12.845Z,98.39
2019-03-10T05:25:12.836Z,99.82
2019-03-10T05:26:12.574Z,99.91
2019-03-10T05:27:12.562Z,99.99
2019-03-10T05:28:12.812Z,99.99
2019-03-10T05:29:12.771Z,99.99
2019-03-10T05:30:12.753Z,99.99
2019-03-10T05:31:12.735Z,99.99
2019-03-10T05:32:12.742Z,99.99
2019-03-10T05:33:12.708Z,99.99
2019-03-10T05:34:12.692Z,99.99
2019-03-10T05:35:12.674Z,99.99
2019-03-10T05:36:12.659Z,99.99
2019-03-10T05:37:12.640Z,99.99
2019-03-10T05:38:12.631Z,99.99
2019-03-10T05:39:12.613Z,99.99
2019-03-10T05:40:12.597Z,99.99
2019-03-10T05:41:12.579Z,99.99
2019-03-10T05:42:12.562Z,99.99
2019-03-10T05:43:12.550Z,99.99
2019-03-10T05:44:12.533Z,99.99
2019-03-10T05:45:12.514Z,99.99
2019-03-10T05:46:12.539Z,99.99
2019-03-10T05:47:12.489Z,99.99
2019-03-10T05:48:12.471Z,99.99
2019-03-10T05:49:12.205Z,99.99
2019-03-10T05:50:12.438Z,99.99
2019-03-10T05:51:12.436Z,99.99
2019-03-10T05:52:12.456Z,99.99
2019-03-10T05:53:12.392Z,99.99
2019-03-10T05:54:12.376Z,99.99
2019-03-10T05:55:12.356Z,99.99
2019-03-10T05:56:12.348Z,99.99
2019-03-10T05:57:12.327Z,99.99
2019-03-10T05:58:12.318Z,99.99
2019-03-10T05:59:12.300Z,99.99
2019-03-10T06:00:12.278Z,99.99
2019-03-10T06:01:12.268Z,99.99
2019-03-10T06:02:12.253Z,99.99
2019-03-10T06:03:12.231Z,99.99
2019-03-10T06:04:12.218Z,99.99
2019-03-10T06:05:12.201Z,99.99
2019-03-10T06:06:12.191Z,99.99
2019-03-10T06:07:12.187Z,99.99
2019-03-10T06:08:12.156Z,99.99
2019-03-10T06:09:12.140Z,99.99
2019-03-10T06:10:12.126Z,99.99
2019-03-10T06:11:12.105Z,99.99
2019-03-10T06:12:12.140Z,99.99
2019-03-10T06:13:12.081Z,99.99
2019-03-10T06:14:12.059Z,99.99
2019-03-10T06:15:12.045Z,99.99
2019-03-10T06:16:12.027Z,99.99
2019-03-10T06:17:12.013Z,99.99
2019-03-10T06:18:16.009Z,99.99
2019-03-10T06:19:11.985Z,99.99
2019-03-10T06:20:11.965Z,99.99
2019-03-10T06:21:11.710Z,99.99
2019-03-10T06:22:11.938Z,99.99
2019-03-10T06:23:11.920Z,99.99
2019-03-10T06:24:11.902Z,99.99
2019-03-10T06:25:11.890Z,99.99
2019-03-10T06:26:11.633Z,99.99
2019-03-10T06:27:11.920Z,99.99
2019-03-10T06:28:11.839Z,99.99
2019-03-10T06:29:11.824Z,99.99
2019-03-10T06:30:11.810Z,99.99
2019-03-10T06:31:11.799Z,99.99
2019-03-10T06:32:11.781Z,99.99
2019-03-10T06:33:11.765Z,99.99
2019-03-10T06:34:11.749Z,99.99
2019-03-10T06:35:11.735Z,99.99
2019-03-10T06:36:11.721Z,99.99
2019-03-10T06:37:11.704Z,99.99
2019-03-10T06:38:11.689Z,99.99
2019-03-10T06:39:11.670Z,99.99
2019-03-10T06:40:11.659Z,99.99
2019-03-10T06:41:11.661Z,99.99
2019-03-10T06:42:11.382Z,99.99
2019-03-10T06:43:11.609Z,99.99
2019-03-10T06:44:11.597Z,99.99
2019-03-10T06:45:11.581Z,99.99
2019-03-10T06:46:11.317Z,99.99
2019-03-10T06:47:11.551Z,99.99
2019-03-10T06:48:11.536Z,99.99
2019-03-10T06:49:11.517Z,99.99
2019-03-10T06:50:12.474Z,99.99
2019-03-10T06:51:11.487Z,99.99
2019-03-10T06:52:11.470Z,99.99
2019-03-10T06:53:11.460Z,99.99
2019-03-10T06:54:11.193Z,99.99
2019-03-10T06:55:11.427Z,99.99
2019-03-10T06:56:11.417Z,99.99
2019-03-10T06:57:11.404Z,99.99
2019-03-10T06:58:11.380Z,99.99
2019-03-10T06:59:11.117Z,99.99
2019-03-10T07:00:11.354Z,99.99
2019-03-10T07:01:11.343Z,99.99
2019-03-10T07:02:11.324Z,99.99
2019-03-10T07:03:11.305Z,99.99
2019-03-10T07:04:11.290Z,99.99
2019-03-10T07:05:11.272Z,99.99
2019-03-10T07:06:11.261Z,99.99
2019-03-10T07:07:11.244Z,99.99
2019-03-10T07:08:10.984Z,99.99
2019-03-10T07:09:11.216Z,99.99
2019-03-10T07:10:11.197Z,99.99
2019-03-10T07:11:11.186Z,99.99
2019-03-10T07:12:11.170Z,99.99
2019-03-10T07:13:11.058Z,99.99
2019-03-10T07:14:11.142Z,99.99
2019-03-10T07:15:11.127Z,99.99
2019-03-10T07:16:11.113Z,99.99
2019-03-10T07:17:11.097Z,99.99
2019-03-10T07:18:11.077Z,99.99
2019-03-10T07:19:11.063Z,99.99
2019-03-10T07:20:11.048Z,99.99
2019-03-10T07:21:11.035Z,99.99
2019-03-10T07:22:11.026Z,99.99
2019-03-10T07:23:11.004Z,99.99
2019-03-10T07:24:10.988Z,99.99
2019-03-10T07:25:10.975Z,99.99
2019-03-10T07:26:10.958Z,98.21
2019-03-10T07:27:10.949Z,97.26
2019-03-10T07:28:10.931Z,97.26
2019-03-10T07:29:10.941Z,98.11
2019-03-10T07:30:10.896Z,99.34
2019-03-10T07:31:10.883Z,98.87
2019-03-10T07:32:11.521Z,98.68
2019-03-10T07:33:10.860Z,97.73
2019-03-10T07:34:10.841Z,96.5
2019-03-10T07:35:10.823Z,94.89
2019-03-10T07:36:10.878Z,93.27
2019-03-10T07:37:10.793Z,91.66
2019-03-10T07:38:10.775Z,90.05
2019-03-10T07:39:10.762Z,88.25
2019-03-10T07:40:10.747Z,87.97
2019-03-10T07:41:10.735Z,88.25
2019-03-10T07:42:10.714Z,87.97
2019-03-10T07:43:10.699Z,87.02
2019-03-10T07:44:10.685Z,86.26
2019-03-10T07:45:10.670Z,83.7
2019-03-10T07:46:10.658Z,80.95
2019-03-10T07:47:10.643Z,80.67
2019-03-10T07:48:10.623Z,82.37
2019-03-10T07:49:10.609Z,82.47
2019-03-10T07:50:10.609Z,81.33
2019-03-10T07:51:10.576Z,80.95
2019-03-10T07:52:19.730Z,79.34
2019-03-10T07:53:10.548Z,79.91
2019-03-10T07:54:10.535Z,78.67
2019-03-10T07:55:10.274Z,77.35
2019-03-10T07:56:11.456Z,76.12
2019-03-10T07:57:10.485Z,74.69
2019-03-10T07:58:10.481Z,74.03
2019-03-10T07:59:10.456Z,73.37
2019-03-10T08:00:10.445Z,73.08
2019-03-10T08:01:10.428Z,73.18
2019-03-10T08:02:10.412Z,73.84
2019-03-10T08:03:10.397Z,74.45
2019-03-10T08:04:10.384Z,76.25
2019-03-10T08:05:10.376Z,76.4
2019-03-10T08:06:10.377Z,77.39
2019-03-10T08:07:10.338Z,77.48
2019-03-10T08:08:10.321Z,77.39
2019-03-10T08:09:10.062Z,77.01
2019-03-10T08:10:10.047Z,77.67
2019-03-10T08:11:10.279Z,81.47
2019-03-10T08:12:10.274Z,81.66
2019-03-10T08:13:10.247Z,81.66
2019-03-10T08:14:10.230Z,81.09
2019-03-10T08:15:10.216Z,80.33
2019-03-10T08:16:10.203Z,80.24
2019-03-10T08:17:10.184Z,80.24
2019-03-10T08:18:10.168Z,80.24
2019-03-10T08:19:10.158Z,82.04
2019-03-10T08:20:10.141Z,84.12
2019-03-10T08:21:10.129Z,85.83
2019-03-10T08:22:10.109Z,85.64
2019-03-10T08:23:10.103Z,85.74
2019-03-10T08:24:10.091Z,92.18
2019-03-10T08:25:10.069Z,93.23
2019-03-10T08:26:10.054Z,91.33
2019-03-10T08:27:10.033Z,88.58
2019-03-10T08:28:10.018Z,87.25
2019-03-10T08:29:10.003Z,86.59
2019-03-10T08:30:09.993Z,85.64
2019-03-10T08:31:09.973Z,85.17
2019-03-10T08:32:09.958Z,84.03
2019-03-10T08:33:09.943Z,83.94
2019-03-10T08:34:09.932Z,84.12
2019-03-10T08:35:09.917Z,84.12
2019-03-10T08:36:09.899Z,84.22
2019-03-10T08:37:09.887Z,84.41
2019-03-10T08:38:09.868Z,86.59
2019-03-10T08:39:09.858Z,88.01
2019-03-10T08:40:09.839Z,91.9
2019-03-10T08:41:09.833Z,91.99
2019-03-10T08:42:19.426Z,90.67
2019-03-10T08:43:09.808Z,91.42
2019-03-10T08:44:09.787Z,90.67
2019-03-10T08:45:09.519Z,90.1
2019-03-10T08:46:09.751Z,88.87
2019-03-10T08:47:09.738Z,86.87
2019-03-10T08:48:09.480Z,85.74
2019-03-10T08:49:09.712Z,85.83
2019-03-10T08:50:09.696Z,85.74
2019-03-10T08:51:09.680Z,86.4
2019-03-10T08:52:09.665Z,86.4
2019-03-10T08:53:09.651Z,86.59
2019-03-10T08:54:09.635Z,87.54
2019-03-10T08:55:09.620Z,88.01
2019-03-10T08:56:09.610Z,86.4
2019-03-10T08:57:09.593Z,84.98
2019-03-10T08:58:09.594Z,83.74
2019-03-10T08:59:09.562Z,82.23
2019-03-10T09:00:09.547Z,81.94
2019-03-10T09:01:10.287Z,82.23
2019-03-10T09:02:09.516Z,82.13
2019-03-10T09:03:09.505Z,81.37
2019-03-10T09:04:09.491Z,82.04
2019-03-10T09:05:09.470Z,81.85
2019-03-10T09:06:09.215Z,81.09
2019-03-10T09:07:09.446Z,80.04
2019-03-10T09:08:09.429Z,79.19
2019-03-10T09:09:09.415Z,81.18
2019-03-10T09:10:09.401Z,83.74
2019-03-10T09:11:09.387Z,85.4
2019-03-10T09:12:09.370Z,85.3
2019-03-10T09:13:09.401Z,84.64
2019-03-10T09:14:09.377Z,84.07
2019-03-10T09:15:09.329Z,84.55
2019-03-10T09:16:09.329Z,86.44
2019-03-10T09:17:09.299Z,87.87
2019-03-10T09:18:09.287Z,88.62
2019-03-10T09:19:09.269Z,89.2
2019-03-10T09:20:09.257Z,90.24
2019-03-10T09:21:09.247Z,91.85
2019-03-10T09:22:09.229Z,92.9
2019-03-10T09:23:09.213Z,93.27
2019-03-10T09:24:09.202Z,92.99
2019-03-10T09:25:09.183Z,93.51
2019-03-10T09:26:09.172Z,93.37
2019-03-10T09:27:09.157Z,94.98
2019-03-10T09:28:09.150Z,93.41
2019-03-10T09:29:09.127Z,97.41
2019-03-10T09:30:09.118Z,97.5
2019-03-10T09:31:09.104Z,96.36
2019-03-10T09:32:09.088Z,96.08
2019-03-10T09:33:08.826Z,94.46
2019-03-10T09:34:09.226Z,95.31
2019-03-10T09:35:09.044Z,97.22
2019-03-10T09:36:09.028Z,99.99
2019-03-10T09:37:09.023Z,99.99
2019-03-10T09:38:09.011Z,99.99
2019-03-10T09:39:09.002Z,99.99
2019-03-10T09:40:08.990Z,99.99
2019-03-10T09:41:08.966Z,99.99
2019-03-10T09:42:08.702Z,99.99
2019-03-10T09:43:08.934Z,99.99
2019-03-10T09:44:08.923Z,99.99
2019-03-10T09:45:08.909Z,99.99
2019-03-10T09:46:08.901Z,99.99
2019-03-10T09:47:08.882Z,99.99
2019-03-10T09:48:08.876Z,99.4
2019-03-10T09:49:08.853Z,99.58
2019-03-10T09:50:08.840Z,99.99
2019-03-10T09:51:08.581Z,99.87
2019-03-10T09:52:08.813Z,99.99
2019-03-10T09:53:08.803Z,99.99
2019-03-10T09:54:08.839Z,99.99
2019-03-10T09:55:08.775Z,99.99
2019-03-10T09:56:08.758Z,99.99
2019-03-10T09:57:08.744Z,99.99
2019-03-10T09:58:08.736Z,99.99
2019-03-10T09:59:08.730Z,99.99
2019-03-10T10:00:08.708Z,99.99
2019-03-10T10:01:08.698Z,99.99
2019-03-10T10:02:08.680Z,99.99
2019-03-10T10:03:08.675Z,99.3
2019-03-10T10:04:08.658Z,99.99
2019-03-10T10:05:08.398Z,99.99
2019-03-10T10:06:08.630Z,99.99
2019-03-10T10:07:08.619Z,99.99
2019-03-10T10:08:08.602Z,99.99
2019-03-10T10:09:08.344Z,99.99
2019-03-10T10:10:08.334Z,99.99
2019-03-10T10:11:08.567Z,99.99
2019-03-10T10:12:15.887Z,99.99
2019-03-10T10:13:08.539Z,99.99
2019-03-10T10:14:08.562Z,99.99
2019-03-10T10:15:08.514Z,99.99
2019-03-10T10:16:08.503Z,99.99
2019-03-10T10:17:08.247Z,99.99
2019-03-10T10:18:08.482Z,99.99
2019-03-10T10:19:08.220Z,99.99
2019-03-10T10:20:08.456Z,99.99
2019-03-10T10:21:08.443Z,99.99
2019-03-10T10:22:08.197Z,99.99
2019-03-10T10:23:08.421Z,99.99
2019-03-10T10:24:08.419Z,99.99
2019-03-10T10:25:08.407Z,99.99
2019-03-10T10:26:08.385Z,99.99
2019-03-10T10:27:08.370Z,99.99
2019-03-10T10:28:08.360Z,99.99
2019-03-10T10:29:08.100Z,99.99
2019-03-10T10:30:08.339Z,99.99
2019-03-10T10:31:08.325Z,99.99
2019-03-10T10:32:08.324Z,99.99
2019-03-10T10:33:08.301Z,99.99
2019-03-10T10:34:08.302Z,99.99
2019-03-10T10:35:08.281Z,99.99
2019-03-10T10:36:08.266Z,99.99
2019-03-10T10:37:08.260Z,99.99
2019-03-10T10:38:18.121Z,99.99
2019-03-10T10:39:07.991Z,99.99
2019-03-10T10:40:08.228Z,99.99
2019-03-10T10:41:07.988Z,99.99
2019-03-10T10:42:08.202Z,99.99
2019-03-10T10:43:08.192Z,99.99
2019-03-10T10:44:08.181Z,99.99
2019-03-10T10:45:08.167Z,99.99
2019-03-10T10:46:08.159Z,99.99
2019-03-10T10:47:08.143Z,99.99
2019-03-10T10:48:08.137Z,99.99
2019-03-10T10:49:08.171Z,99.99
2019-03-10T10:50:08.125Z,99.99
2019-03-10T10:51:08.121Z,99.99
2019-03-10T10:52:08.113Z,99.99
2019-03-10T10:53:08.098Z,99.99
2019-03-10T10:54:07.831Z,99.99
2019-03-10T10:55:07.828Z,99.99
2019-03-10T10:56:08.060Z,99.99
2019-03-10T10:57:08.061Z,99.99
2019-03-10T10:58:08.098Z,99.99
2019-03-10T10:59:08.016Z,99.99
2019-03-10T11:00:07.755Z,99.99
2019-03-10T11:01:09.899Z,99.99
2019-03-10T11:02:07.975Z,99.99
2019-03-10T11:03:07.969Z,99.99
2019-03-10T11:04:07.953Z,99.99
2019-03-10T11:05:07.944Z,99.99
2019-03-10T11:06:07.933Z,99.99
2019-03-10T11:07:07.921Z,99.99
2019-03-10T11:08:07.920Z,99.99
2019-03-10T11:09:07.900Z,98.79
2019-03-10T11:10:07.883Z,97.45
2019-03-10T11:11:07.874Z,95.27
2019-03-10T11:12:07.862Z,93.75
2019-03-10T11:13:07.853Z,90.52
2019-03-10T11:14:07.839Z,88.23
2019-03-10T11:15:07.823Z,92.89
2019-03-10T11:16:07.815Z,98.5
2019-03-10T11:17:07.802Z,97.64
2019-03-10T11:18:12.007Z,99.99
2019-03-10T11:19:07.779Z,98.55
2019-03-10T11:20:07.771Z,99.99
2019-03-10T11:21:07.521Z,99.99
2019-03-10T11:22:07.746Z,99.99
2019-03-10T11:23:07.735Z,99.99
2019-03-10T11:24:07.721Z,99.99
2019-03-10T11:25:07.709Z,99.99
2019-03-10T11:26:08.605Z,99.99
2019-03-10T11:27:07.690Z,99.99
2019-03-10T11:28:07.672Z,99.99
2019-03-10T11:29:07.673Z,99.99
2019-03-10T11:30:07.407Z,99.99
2019-03-10T11:31:07.647Z,99.99
2019-03-10T11:32:07.627Z,99.99
2019-03-10T11:33:07.640Z,99.88
2019-03-10T11:34:07.607Z,99.6
2019-03-10T11:35:07.596Z,99.99
2019-03-10T11:36:07.580Z,99.99
2019-03-10T11:37:07.575Z,99.99
2019-03-10T11:38:07.561Z,99.99
2019-03-10T11:39:07.550Z,97.6
2019-03-10T11:40:07.657Z,96.17
2019-03-10T11:41:07.536Z,95.22
2019-03-10T11:42:07.523Z,95.32
2019-03-10T11:43:07.509Z,94.46
2019-03-10T11:44:07.489Z,90.94
2019-03-10T11:45:07.490Z,89.42
2019-03-10T11:46:07.466Z,90.28
2019-03-10T11:47:07.456Z,90.56
2019-03-10T11:48:07.201Z,91.51
2019-03-10T11:49:07.437Z,93.79
2019-03-10T11:50:07.178Z,92.84
2019-03-10T11:51:07.412Z,98.55
2019-03-10T11:52:07.399Z,95.65
2019-03-10T11:53:18.229Z,95.08
2019-03-10T11:54:07.137Z,98.98
2019-03-10T11:55:07.446Z,99.99
2019-03-10T11:56:07.360Z,99.99
2019-03-10T11:57:07.348Z,99.99
2019-03-10T11:58:07.332Z,99.99
2019-03-10T11:59:07.322Z,99.99
2019-03-10T12:00:07.314Z,99.99
2019-03-10T12:01:07.301Z,99.99
2019-03-10T12:02:17.914Z,99.99
2019-03-10T12:03:07.278Z,99.99
2019-03-10T12:04:07.267Z,99.99
2019-03-10T12:05:07.275Z,99.99
2019-03-10T12:06:07.246Z,99.99
2019-03-10T12:07:07.235Z,99.99
2019-03-10T12:08:07.226Z,99.99
2019-03-10T12:09:07.219Z,99.99
2019-03-10T12:10:07.216Z,99.99
2019-03-10T12:11:07.200Z,99.99
2019-03-10T12:12:07.184Z,99.99
2019-03-10T12:13:07.172Z,99.99
2019-03-10T12:14:07.166Z,98.88
2019-03-10T12:15:07.152Z,97.03
2019-03-10T12:16:07.145Z,92.65
2019-03-10T12:17:07.131Z,90.75
2019-03-10T12:18:07.117Z,87.9
2019-03-10T12:19:07.106Z,85.24
2019-03-10T12:20:07.100Z,82.09
2019-03-10T12:21:07.090Z,77.91
2019-03-10T12:22:07.079Z,77.01
2019-03-10T12:23:07.065Z,75.21
2019-03-10T12:24:07.054Z,73.78
2019-03-10T12:25:07.043Z,73.59
2019-03-10T12:26:07.039Z,72.16
2019-03-10T12:27:07.014Z,70.83
2019-03-10T12:28:07.037Z,70.07
2019-03-10T12:29:06.748Z,69.21
2019-03-10T12:30:06.979Z,66.17
2019-03-10T12:31:06.973Z,65.13
2019-03-10T12:32:06.959Z,65.99
2019-03-10T12:33:06.947Z,64.84
2019-03-10T12:34:07.943Z,66.55
2019-03-10T12:35:06.921Z,66.9
2019-03-10T12:36:06.906Z,65.13
2019-03-10T12:37:06.905Z,64.53
2019-03-10T12:38:06.887Z,64.05
2019-03-10T12:39:06.879Z,64.05
2019-03-10T12:40:06.862Z,65.38
2019-03-10T12:41:06.855Z,69.09
2019-03-10T12:42:06.838Z,73.36
2019-03-10T12:43:06.830Z,74.69
2019-03-10T12:44:06.827Z,73.46
2019-03-10T12:45:06.805Z,71.27
2019-03-10T12:46:06.789Z,70.79
2019-03-10T12:47:06.532Z,69.85
2019-03-10T12:48:06.819Z,69.18
2019-03-10T12:49:06.508Z,67.57
2019-03-10T12:50:06.741Z,63.2
2019-03-10T12:51:06.726Z,61.32
2019-03-10T12:52:06.719Z,62.08
2019-03-10T12:53:06.707Z,61.71